sensor_id;sensor_type;location;lat;lon;timestamp;pressure;altitude;pressure_sealevel;temperature;humidity
14204;BME280;7185;51.854;6.622;2023-02-16T00:02:16;102128.50;;;7.06;91.85
14204;BME280;7185;51.854;6.622;2023-02-16T00:04:48;102131.09;;;7.04;91.77
14204;BME280;7185;51.854;6.622;2023-02-16T00:07:20;102130.00;;;6.94;93.21
14204;BME280;7185;51.854;6.622;2023-02-16T00:09:51;102128.25;;;6.93;93.17
14204;BME280;7185;51.854;6.622;2023-02-16T00:12:23;102135.38;;;7.00;92.56
14204;BME280;7185;51.854;6.622;2023-02-16T00:15:17;102131.13;;;7.07;91.41
14204;BME280;7185;51.854;6.622;2023-02-16T00:17:49;102130.28;;;7.07;90.83
14204;BME280;7185;51.854;6.622;2023-02-16T00:20:21;102132.66;;;6.96;92.04
14204;BME280;7185;51.854;6.622;2023-02-16T00:22:53;102129.22;;;6.98;91.25
14204;BME280;7185;51.854;6.622;2023-02-16T00:25:24;102124.59;;;6.85;93.18
14204;BME280;7185;51.854;6.622;2023-02-16T00:27:56;102123.09;;;6.96;91.45
14204;BME280;7185;51.854;6.622;2023-02-16T00:30:29;102123.09;;;6.96;91.72
14204;BME280;7185;51.854;6.622;2023-02-16T00:33:00;102122.13;;;6.91;91.35
14204;BME280;7185;51.854;6.622;2023-02-16T00:35:32;102115.81;;;6.80;92.98
14204;BME280;7185;51.854;6.622;2023-02-16T00:38:03;102121.88;;;6.80;92.58
14204;BME280;7185;51.854;6.622;2023-02-16T00:40:35;102117.50;;;6.78;92.24
14204;BME280;7185;51.854;6.622;2023-02-16T00:43:08;102124.34;;;6.73;93.05
14204;BME280;7185;51.854;6.622;2023-02-16T00:45:43;102115.72;;;6.77;93.04
14204;BME280;7185;51.854;6.622;2023-02-16T00:48:15;102118.31;;;6.75;92.44
14204;BME280;7185;51.854;6.622;2023-02-16T00:50:46;102112.19;;;6.75;92.36
14204;BME280;7185;51.854;6.622;2023-02-16T00:53:18;102106.16;;;6.77;92.42
14204;BME280;7185;51.854;6.622;2023-02-16T00:55:50;102113.84;;;6.71;92.21
14204;BME280;7185;51.854;6.622;2023-02-16T00:58:24;102108.47;;;6.63;93.84
14204;BME280;7185;51.854;6.622;2023-02-16T01:01:02;102122.34;;;6.62;93.53
14204;BME280;7185;51.854;6.622;2023-02-16T01:03:36;102122.97;;;6.52;95.63
14204;BME280;7185;51.854;6.622;2023-02-16T01:06:08;102117.94;;;6.58;94.81
14204;BME280;7185;51.854;6.622;2023-02-16T01:09:05;102115.16;;;6.52;95.61
14204;BME280;7185;51.854;6.622;2023-02-16T01:12:12;102117.88;;;6.57;94.14
14204;BME280;7185;51.854;6.622;2023-02-16T01:14:46;102123.75;;;6.48;95.43
14204;BME280;7185;51.854;6.622;2023-02-16T01:17:22;102124.56;;;6.45;94.46
14204;BME280;7185;51.854;6.622;2023-02-16T01:19:54;102114.81;;;6.36;97.09
14204;BME280;7185;51.854;6.622;2023-02-16T01:22:26;102123.47;;;6.35;96.84
14204;BME280;7185;51.854;6.622;2023-02-16T01:25:02;102110.44;;;6.34;96.75
14204;BME280;7185;51.854;6.622;2023-02-16T01:27:35;102121.03;;;6.42;95.97
14204;BME280;7185;51.854;6.622;2023-02-16T01:30:12;102114.88;;;6.40;95.92
14204;BME280;7185;51.854;6.622;2023-02-16T01:32:46;102117.34;;;6.33;95.40
14204;BME280;7185;51.854;6.622;2023-02-16T01:35:22;102114.69;;;6.30;97.25
14204;BME280;7185;51.854;6.622;2023-02-16T01:37:55;102118.13;;;6.29;96.88
14204;BME280;7185;51.854;6.622;2023-02-16T01:40:36;102115.53;;;6.29;96.53
14204;BME280;7185;51.854;6.622;2023-02-16T01:43:17;102116.59;;;6.37;96.14
14204;BME280;7185;51.854;6.622;2023-02-16T01:45:54;102112.97;;;6.32;96.09
14204;BME280;7185;51.854;6.622;2023-02-16T01:48:31;102116.66;;;6.41;95.75
14204;BME280;7185;51.854;6.622;2023-02-16T01:51:05;102112.91;;;6.29;95.82
14204;BME280;7185;51.854;6.622;2023-02-16T01:53:45;102108.34;;;6.20;98.16
14204;BME280;7185;51.854;6.622;2023-02-16T01:56:25;102104.78;;;6.17;97.14
14204;BME280;7185;51.854;6.622;2023-02-16T01:59:02;102100.44;;;6.16;97.08
14204;BME280;7185;51.854;6.622;2023-02-16T02:01:48;102098.63;;;6.13;97.18
14204;BME280;7185;51.854;6.622;2023-02-16T02:04:31;102093.34;;;6.09;97.26
14204;BME280;7185;51.854;6.622;2023-02-16T02:07:26;102099.41;;;6.09;97.05
14204;BME280;7185;51.854;6.622;2023-02-16T02:10:02;102095.03;;;6.08;97.38
14204;BME280;7185;51.854;6.622;2023-02-16T02:12:45;102089.34;;;5.89;100.00
14204;BME280;7185;51.854;6.622;2023-02-16T02:15:24;102080.66;;;5.89;100.00
14204;BME280;7185;51.854;6.622;2023-02-16T02:17:58;102079.69;;;5.85;100.00
14204;BME280;7185;51.854;6.622;2023-02-16T02:20:43;102071.84;;;5.84;100.00
14204;BME280;7185;51.854;6.622;2023-02-16T02:23:48;102073.63;;;5.85;100.00
14204;BME280;7185;51.854;6.622;2023-02-16T02:26:54;102073.53;;;5.82;100.00
14204;BME280;7185;51.854;6.622;2023-02-16T02:30:07;102067.56;;;5.86;100.00
14204;BME280;7185;51.854;6.622;2023-02-16T02:32:54;102059.69;;;5.83;100.00
14204;BME280;7185;51.854;6.622;2023-02-16T02:35:41;102055.22;;;5.77;100.00
14204;BME280;7185;51.854;6.622;2023-02-16T02:38:23;102052.69;;;5.82;100.00
14204;BME280;7185;51.854;6.622;2023-02-16T02:41:01;102045.78;;;5.82;100.00
14204;BME280;7185;51.854;6.622;2023-02-16T02:43:37;102042.28;;;5.82;100.00
14204;BME280;7185;51.854;6.622;2023-02-16T02:46:12;102038.78;;;5.80;100.00
14204;BME280;7185;51.854;6.622;2023-02-16T02:48:45;102032.50;;;5.70;100.00
14204;BME280;7185;51.854;6.622;2023-02-16T02:51:17;102038.03;;;5.85;99.00
14204;BME280;7185;51.854;6.622;2023-02-16T02:54:05;102035.25;;;5.78;98.99
14204;BME280;7185;51.854;6.622;2023-02-16T02:56:59;102037.78;;;5.74;99.78
14204;BME280;7185;51.854;6.622;2023-02-16T02:59:54;102031.53;;;5.66;100.00
14204;BME280;7185;51.854;6.622;2023-02-16T03:02:46;102036.88;;;5.72;100.00
14204;BME280;7185;51.854;6.622;2023-02-16T03:05:21;102037.84;;;5.76;100.00
14204;BME280;7185;51.854;6.622;2023-02-16T03:07:57;102045.59;;;5.74;99.83
14204;BME280;7185;51.854;6.622;2023-02-16T03:10:46;102041.19;;;5.72;99.59
14204;BME280;7185;51.854;6.622;2023-02-16T03:13:38;102042.94;;;5.73;99.61
14204;BME280;7185;51.854;6.622;2023-02-16T03:16:14;102042.94;;;5.71;99.72
14204;BME280;7185;51.854;6.622;2023-02-16T03:18:47;102033.44;;;5.73;100.00
14204;BME280;7185;51.854;6.622;2023-02-16T03:21:36;102031.59;;;5.69;99.96
14204;BME280;7185;51.854;6.622;2023-02-16T03:24:27;102032.56;;;5.74;99.76
14204;BME280;7185;51.854;6.622;2023-02-16T03:27:20;102031.69;;;5.72;99.18
14204;BME280;7185;51.854;6.622;2023-02-16T03:30:11;102035.81;;;5.64;99.42
14204;BME280;7185;51.854;6.622;2023-02-16T03:32:46;102030.50;;;5.61;99.53
14204;BME280;7185;51.854;6.622;2023-02-16T03:35:19;102029.63;;;5.59;99.49
14204;BME280;7185;51.854;6.622;2023-02-16T03:37:50;102027.63;;;5.50;100.00
14204;BME280;7185;51.854;6.622;2023-02-16T03:40:26;102021.53;;;5.48;100.00
14204;BME280;7185;51.854;6.622;2023-02-16T03:43:00;102030.16;;;5.47;100.00
14204;BME280;7185;51.854;6.622;2023-02-16T03:45:35;102037.84;;;5.42;100.00
14204;BME280;7185;51.854;6.622;2023-02-16T03:48:09;102027.53;;;5.46;100.00
14204;BME280;7185;51.854;6.622;2023-02-16T03:50:40;102023.88;;;5.39;100.00
14204;BME280;7185;51.854;6.622;2023-02-16T03:53:12;102028.16;;;5.37;100.00
14204;BME280;7185;51.854;6.622;2023-02-16T03:55:45;102018.72;;;5.40;100.00
14204;BME280;7185;51.854;6.622;2023-02-16T03:58:19;102025.50;;;5.34;100.00
14204;BME280;7185;51.854;6.622;2023-02-16T04:00:50;102025.69;;;5.41;100.00
14204;BME280;7185;51.854;6.622;2023-02-16T04:03:24;102027.19;;;5.33;100.00
14204;BME280;7185;51.854;6.622;2023-02-16T04:05:55;102024.53;;;5.30;100.00
14204;BME280;7185;51.854;6.622;2023-02-16T04:08:27;102030.88;;;5.41;100.00
14204;BME280;7185;51.854;6.622;2023-02-16T04:10:59;102030.03;;;5.42;100.00
14204;BME280;7185;51.854;6.622;2023-02-16T04:13:50;102032.56;;;5.39;100.00
14204;BME280;7185;51.854;6.622;2023-02-16T04:16:21;102028.41;;;5.46;100.00
14204;BME280;7185;51.854;6.622;2023-02-16T04:18:54;102026.66;;;5.47;100.00
14204;BME280;7185;51.854;6.622;2023-02-16T04:21:25;102035.22;;;5.41;100.00
14204;BME280;7185;51.854;6.622;2023-02-16T04:23:57;102029.22;;;5.43;100.00
14204;BME280;7185;51.854;6.622;2023-02-16T04:26:29;102028.13;;;5.35;100.00
14204;BME280;7185;51.854;6.622;2023-02-16T04:29:00;102027.19;;;5.33;100.00
14204;BME280;7185;51.854;6.622;2023-02-16T04:31:32;102035.94;;;5.35;100.00
14204;BME280;7185;51.854;6.622;2023-02-16T04:34:05;102035.69;;;5.26;100.00
14204;BME280;7185;51.854;6.622;2023-02-16T04:36:36;102040.34;;;5.39;100.00
14204;BME280;7185;51.854;6.622;2023-02-16T04:39:08;102039.63;;;5.43;99.87
14204;BME280;7185;51.854;6.622;2023-02-16T04:41:39;102029.13;;;5.40;99.61
14204;BME280;7185;51.854;6.622;2023-02-16T04:44:11;102027.34;;;5.39;99.92
14204;BME280;7185;51.854;6.622;2023-02-16T04:46:43;102021.56;;;5.16;100.00
14204;BME280;7185;51.854;6.622;2023-02-16T04:49:16;102023.53;;;5.25;100.00
14204;BME280;7185;51.854;6.622;2023-02-16T04:51:47;102019.75;;;5.14;100.00
14204;BME280;7185;51.854;6.622;2023-02-16T04:54:19;102023.59;;;5.28;100.00
14204;BME280;7185;51.854;6.622;2023-02-16T04:56:51;102025.28;;;5.26;100.00
14204;BME280;7185;51.854;6.622;2023-02-16T04:59:22;102019.91;;;5.20;99.80
14204;BME280;7185;51.854;6.622;2023-02-16T05:01:54;102031.13;;;5.17;100.00
14204;BME280;7185;51.854;6.622;2023-02-16T05:04:28;102021.41;;;5.11;100.00
14204;BME280;7185;51.854;6.622;2023-02-16T05:06:59;102033.00;;;5.23;100.00
14204;BME280;7185;51.854;6.622;2023-02-16T05:09:31;102037.66;;;5.35;99.72
14204;BME280;7185;51.854;6.622;2023-02-16T05:12:02;102035.78;;;5.29;100.00
14204;BME280;7185;51.854;6.622;2023-02-16T05:14:52;102046.50;;;5.41;98.75
14204;BME280;7185;51.854;6.622;2023-02-16T05:17:24;102042.09;;;5.39;99.01
14204;BME280;7185;51.854;6.622;2023-02-16T05:19:59;102034.31;;;5.40;99.86
14204;BME280;7185;51.854;6.622;2023-02-16T05:22:31;102033.56;;;5.45;99.29
14204;BME280;7185;51.854;6.622;2023-02-16T05:25:04;102030.88;;;5.41;99.05
14204;BME280;7185;51.854;6.622;2023-02-16T05:27:35;102030.03;;;5.41;99.16
14204;BME280;7185;51.854;6.622;2023-02-16T05:30:08;102036.13;;;5.43;99.03
14204;BME280;7185;51.854;6.622;2023-02-16T05:32:40;102039.78;;;5.50;98.47
14204;BME280;7185;51.854;6.622;2023-02-16T05:35:13;102037.03;;;5.43;98.55
14204;BME280;7185;51.854;6.622;2023-02-16T05:37:44;102030.28;;;5.52;98.14
14204;BME280;7185;51.854;6.622;2023-02-16T05:40:16;102019.91;;;5.53;98.38
14204;BME280;7185;51.854;6.622;2023-02-16T05:42:51;102012.50;;;5.34;98.60
14204;BME280;7185;51.854;6.622;2023-02-16T05:45:23;102004.88;;;5.41;98.75
14204;BME280;7185;51.854;6.622;2023-02-16T05:47:55;102006.16;;;5.24;99.34
14204;BME280;7185;51.854;6.622;2023-02-16T05:50:28;102023.84;;;5.37;98.66
14204;BME280;7185;51.854;6.622;2023-02-16T05:53:00;102023.84;;;5.37;98.62
14204;BME280;7185;51.854;6.622;2023-02-16T05:55:31;102022.16;;;5.39;98.78
14204;BME280;7185;51.854;6.622;2023-02-16T05:58:03;102019.06;;;5.53;98.46
14204;BME280;7185;51.854;6.622;2023-02-16T06:00:35;102027.34;;;5.39;98.95
14204;BME280;7185;51.854;6.622;2023-02-16T06:03:07;102030.31;;;5.53;98.61
14204;BME280;7185;51.854;6.622;2023-02-16T06:05:40;102019.75;;;5.46;98.25
14204;BME280;7185;51.854;6.622;2023-02-16T06:08:12;102018.94;;;5.48;98.15
14204;BME280;7185;51.854;6.622;2023-02-16T06:10:44;102027.69;;;5.52;97.87
14204;BME280;7185;51.854;6.622;2023-02-16T06:13:16;102034.66;;;5.53;97.91
14204;BME280;7185;51.854;6.622;2023-02-16T06:15:51;102027.00;;;5.59;97.53
14204;BME280;7185;51.854;6.622;2023-02-16T06:18:23;102028.66;;;5.55;98.66
14204;BME280;7185;51.854;6.622;2023-02-16T06:20:57;102031.69;;;5.72;97.50
14204;BME280;7185;51.854;6.622;2023-02-16T06:23:28;102025.66;;;5.75;96.91
14204;BME280;7185;51.854;6.622;2023-02-16T06:26:00;102024.56;;;5.65;97.40
14204;BME280;7185;51.854;6.622;2023-02-16T06:28:32;102010.84;;;5.72;96.99
14204;BME280;7185;51.854;6.622;2023-02-16T06:31:03;102007.31;;;5.70;97.15
14204;BME280;7185;51.854;6.622;2023-02-16T06:33:35;102000.31;;;5.66;97.26
14204;BME280;7185;51.854;6.622;2023-02-16T06:36:09;102004.44;;;5.58;97.56
14204;BME280;7185;51.854;6.622;2023-02-16T06:38:44;102000.06;;;5.57;97.84
14204;BME280;7185;51.854;6.622;2023-02-16T06:41:16;102009.69;;;5.61;97.75
14204;BME280;7185;51.854;6.622;2023-02-16T06:44:02;102012.50;;;5.69;97.00
14204;BME280;7185;51.854;6.622;2023-02-16T06:46:34;102009.31;;;5.81;96.35
14204;BME280;7185;51.854;6.622;2023-02-16T06:49:06;102028.28;;;5.77;96.50
14204;BME280;7185;51.854;6.622;2023-02-16T06:51:40;102037.16;;;5.83;96.25
14204;BME280;7185;51.854;6.622;2023-02-16T06:54:12;102025.28;;;5.59;97.61
14204;BME280;7185;51.854;6.622;2023-02-16T06:56:44;102026.75;;;5.85;95.89
14204;BME280;7185;51.854;6.622;2023-02-16T06:59:16;102016.81;;;5.68;97.61
14204;BME280;7185;51.854;6.622;2023-02-16T07:01:47;102022.25;;;5.78;97.31
14204;BME280;7185;51.854;6.622;2023-02-16T07:04:19;102025.91;;;5.84;97.35
14204;BME280;7185;51.854;6.622;2023-02-16T07:06:53;102028.44;;;5.83;97.50
14204;BME280;7185;51.854;6.622;2023-02-16T07:09:25;102027.03;;;5.96;96.45
14204;BME280;7185;51.854;6.622;2023-02-16T07:11:57;102020.19;;;5.99;96.55
14204;BME280;7185;51.854;6.622;2023-02-16T07:14:30;102016.63;;;5.97;96.28
14204;BME280;7185;51.854;6.622;2023-02-16T07:17:01;102015.91;;;6.01;96.09
14204;BME280;7185;51.854;6.622;2023-02-16T07:19:43;102037.47;;;5.97;95.80
14204;BME280;7185;51.854;6.622;2023-02-16T07:22:16;102027.00;;;5.94;96.56
14204;BME280;7185;51.854;6.622;2023-02-16T07:24:48;102034.69;;;5.89;96.59
14204;BME280;7185;51.854;6.622;2023-02-16T07:27:20;102033.25;;;6.01;96.49
14204;BME280;7185;51.854;6.622;2023-02-16T07:29:52;102039.22;;;5.98;96.55
14204;BME280;7185;51.854;6.622;2023-02-16T07:32:23;102047.34;;;6.11;96.08
14204;BME280;7185;51.854;6.622;2023-02-16T07:34:56;102040.59;;;6.19;95.43
14204;BME280;7185;51.854;6.622;2023-02-16T07:37:29;102037.88;;;6.13;96.09
14204;BME280;7185;51.854;6.622;2023-02-16T07:40:01;102037.94;;;6.16;96.21
14204;BME280;7185;51.854;6.622;2023-02-16T07:42:33;102027.44;;;6.13;95.84
14204;BME280;7185;51.854;6.622;2023-02-16T07:45:05;102038.91;;;6.19;95.40
14204;BME280;7185;51.854;6.622;2023-02-16T07:47:37;102043.91;;;6.12;95.99
14204;BME280;7185;51.854;6.622;2023-02-16T07:50:09;102041.53;;;6.21;95.10
14204;BME280;7185;51.854;6.622;2023-02-16T07:52:43;102046.88;;;6.27;95.45
14204;BME280;7185;51.854;6.622;2023-02-16T07:55:15;102044.25;;;6.26;95.78
14204;BME280;7185;51.854;6.622;2023-02-16T07:57:47;102031.13;;;6.22;94.83
14204;BME280;7185;51.854;6.622;2023-02-16T08:00:33;102047.81;;;6.29;95.15
14204;BME280;7185;51.854;6.622;2023-02-16T08:03:05;102042.75;;;6.37;94.52
14204;BME280;7185;51.854;6.622;2023-02-16T08:05:37;102033.22;;;6.37;94.01
14204;BME280;7185;51.854;6.622;2023-02-16T08:08:10;102031.78;;;6.52;93.54
14204;BME280;7185;51.854;6.622;2023-02-16T08:10:42;102043.69;;;6.41;94.26
14204;BME280;7185;51.854;6.622;2023-02-16T08:13:13;102054.44;;;6.54;93.54
14204;BME280;7185;51.854;6.622;2023-02-16T08:15:45;102055.88;;;6.42;93.43
14204;BME280;7185;51.854;6.622;2023-02-16T08:18:17;102047.41;;;6.52;93.62
14204;BME280;7185;51.854;6.622;2023-02-16T08:20:48;102047.28;;;6.46;94.38
14204;BME280;7185;51.854;6.622;2023-02-16T08:23:21;102052.56;;;6.49;94.00
14204;BME280;7185;51.854;6.622;2023-02-16T08:25:54;102042.19;;;6.52;94.15
14204;BME280;7185;51.854;6.622;2023-02-16T08:28:28;102049.28;;;6.58;94.28
14204;BME280;7185;51.854;6.622;2023-02-16T08:31:15;102050.34;;;6.67;93.01
14204;BME280;7185;51.854;6.622;2023-02-16T08:33:48;102055.44;;;6.61;92.87
14204;BME280;7185;51.854;6.622;2023-02-16T08:36:23;102058.44;;;6.80;92.18
14204;BME280;7185;51.854;6.622;2023-02-16T08:39:02;102065.22;;;6.72;92.62
14204;BME280;7185;51.854;6.622;2023-02-16T08:41:35;102056.94;;;6.91;91.98
14204;BME280;7185;51.854;6.622;2023-02-16T08:44:08;102058.91;;;7.03;91.58
14204;BME280;7185;51.854;6.622;2023-02-16T08:46:43;102054.69;;;7.10;90.35
14204;BME280;7185;51.854;6.622;2023-02-16T08:49:18;102059.78;;;7.04;90.00
14204;BME280;7185;51.854;6.622;2023-02-16T08:51:52;102055.72;;;7.18;89.18
14204;BME280;7185;51.854;6.622;2023-02-16T08:54:29;102049.75;;;7.25;87.82
14204;BME280;7185;51.854;6.622;2023-02-16T08:57:02;102059.44;;;7.29;87.96
14204;BME280;7185;51.854;6.622;2023-02-16T08:59:34;102068.91;;;7.26;88.49
14204;BME280;7185;51.854;6.622;2023-02-16T09:02:08;102078.03;;;7.49;87.82
14204;BME280;7185;51.854;6.622;2023-02-16T09:04:40;102087.75;;;7.58;86.82
14204;BME280;7185;51.854;6.622;2023-02-16T09:07:12;102080.84;;;7.60;87.00
14204;BME280;7185;51.854;6.622;2023-02-16T09:09:46;102084.53;;;7.72;86.15
14204;BME280;7185;51.854;6.622;2023-02-16T09:12:18;102081.94;;;7.73;85.47
14204;BME280;7185;51.854;6.622;2023-02-16T09:14:52;102080.41;;;7.86;85.72
14204;BME280;7185;51.854;6.622;2023-02-16T09:17:24;102069.94;;;7.83;84.54
14204;BME280;7185;51.854;6.622;2023-02-16T09:19:57;102074.31;;;7.84;84.51
14204;BME280;7185;51.854;6.622;2023-02-16T09:22:29;102066.94;;;7.61;85.42
14204;BME280;7185;51.854;6.622;2023-02-16T09:25:02;102072.72;;;7.45;86.93
14204;BME280;7185;51.854;6.622;2023-02-16T09:27:34;102064.50;;;7.71;85.90
14204;BME280;7185;51.854;6.622;2023-02-16T09:30:07;102061.94;;;7.74;86.26
14204;BME280;7185;51.854;6.622;2023-02-16T09:32:39;102059.97;;;7.60;86.77
14204;BME280;7185;51.854;6.622;2023-02-16T09:35:11;102052.75;;;7.97;84.86
14204;BME280;7185;51.854;6.622;2023-02-16T09:37:43;102049.72;;;8.26;82.38
14204;BME280;7185;51.854;6.622;2023-02-16T09:40:17;102064.56;;;8.30;81.99
14204;BME280;7185;51.854;6.622;2023-02-16T09:42:59;102054.72;;;8.14;82.60
14204;BME280;7185;51.854;6.622;2023-02-16T09:45:39;102073.75;;;8.05;84.15
14204;BME280;7185;51.854;6.622;2023-02-16T09:48:20;102065.97;;;8.07;83.60
14204;BME280;7185;51.854;6.622;2023-02-16T09:50:58;102064.38;;;8.17;83.05
14204;BME280;7185;51.854;6.622;2023-02-16T09:53:33;102069.25;;;7.95;84.53
14204;BME280;7185;51.854;6.622;2023-02-16T09:56:16;102071.22;;;8.10;83.96
14204;BME280;7185;51.854;6.622;2023-02-16T09:58:56;102076.34;;;8.04;83.99
14204;BME280;7185;51.854;6.622;2023-02-16T10:01:34;102082.59;;;8.12;84.58
14204;BME280;7185;51.854;6.622;2023-02-16T10:04:26;102085.31;;;8.21;83.23
14204;BME280;7185;51.854;6.622;2023-02-16T10:07:07;102097.31;;;8.07;84.01
14204;BME280;7185;51.854;6.622;2023-02-16T10:09:48;102100.72;;;8.03;85.04
14204;BME280;7185;51.854;6.622;2023-02-16T10:12:27;102097.91;;;7.92;86.48
14204;BME280;7185;51.854;6.622;2023-02-16T10:15:06;102090.50;;;8.18;84.84
14204;BME280;7185;51.854;6.622;2023-02-16T10:17:44;102094.63;;;8.02;86.38
14204;BME280;7185;51.854;6.622;2023-02-16T10:20:20;102097.59;;;8.25;85.18
14204;BME280;7185;51.854;6.622;2023-02-16T10:22:59;102087.28;;;8.35;84.70
14204;BME280;7185;51.854;6.622;2023-02-16T10:25:40;102084.03;;;8.48;84.22
14204;BME280;7185;51.854;6.622;2023-02-16T10:28:17;102085.19;;;8.12;85.62
14204;BME280;7185;51.854;6.622;2023-02-16T10:30:59;102081.25;;;8.39;85.51
14204;BME280;7185;51.854;6.622;2023-02-16T10:33:37;102068.16;;;8.39;85.08
14204;BME280;7185;51.854;6.622;2023-02-16T10:36:28;102076.41;;;8.65;85.61
14204;BME280;7185;51.854;6.622;2023-02-16T10:39:11;102072.03;;;8.64;85.67
14204;BME280;7185;51.854;6.622;2023-02-16T10:41:50;102077.56;;;8.86;85.18
14204;BME280;7185;51.854;6.622;2023-02-16T10:44:31;102075.50;;;8.61;86.05
14204;BME280;7185;51.854;6.622;2023-02-16T10:47:21;102068.81;;;8.85;86.89
14204;BME280;7185;51.854;6.622;2023-02-16T10:49:55;102075.94;;;8.96;85.63
14204;BME280;7185;51.854;6.622;2023-02-16T10:52:29;102067.22;;;8.97;83.96
14204;BME280;7185;51.854;6.622;2023-02-16T10:55:04;102054.41;;;9.20;83.39
14204;BME280;7185;51.854;6.622;2023-02-16T10:57:36;102053.59;;;9.25;82.78
14204;BME280;7185;51.854;6.622;2023-02-16T11:00:12;102059.88;;;9.45;83.71
14204;BME280;7185;51.854;6.622;2023-02-16T11:02:49;102059.09;;;9.53;82.98
14204;BME280;7185;51.854;6.622;2023-02-16T11:05:36;102065.03;;;9.34;83.42
14204;BME280;7185;51.854;6.622;2023-02-16T11:08:09;102062.44;;;9.37;83.65
14204;BME280;7185;51.854;6.622;2023-02-16T11:10:44;102060.59;;;9.28;85.13
14204;BME280;7185;51.854;6.622;2023-02-16T11:13:24;102052.06;;;9.49;85.04
14204;BME280;7185;51.854;6.622;2023-02-16T11:16:01;102046.59;;;9.24;86.37
14204;BME280;7185;51.854;6.622;2023-02-16T11:18:38;102046.78;;;9.41;85.98
14204;BME280;7185;51.854;6.622;2023-02-16T11:21:11;102049.34;;;9.38;86.03
14204;BME280;7185;51.854;6.622;2023-02-16T11:23:43;102048.47;;;9.38;87.87
14204;BME280;7185;51.854;6.622;2023-02-16T11:26:28;102046.72;;;9.35;89.16
14204;BME280;7185;51.854;6.622;2023-02-16T11:29:06;102032.88;;;9.47;88.33
14204;BME280;7185;51.854;6.622;2023-02-16T11:31:54;102027.63;;;9.49;88.82
14204;BME280;7185;51.854;6.622;2023-02-16T11:34:30;102042.44;;;9.45;88.99
14204;BME280;7185;51.854;6.622;2023-02-16T11:37:06;102041.69;;;9.59;90.93
14204;BME280;7185;51.854;6.622;2023-02-16T11:39:49;102040.03;;;9.70;89.60
14204;BME280;7185;51.854;6.622;2023-02-16T11:42:27;102045.31;;;9.75;91.46
14204;BME280;7185;51.854;6.622;2023-02-16T11:45:02;102047.31;;;10.08;90.51
14204;BME280;7185;51.854;6.622;2023-02-16T11:47:38;102047.41;;;10.17;91.08
14204;BME280;7185;51.854;6.622;2023-02-16T11:50:18;102054.31;;;10.12;89.61
14204;BME280;7185;51.854;6.622;2023-02-16T11:52:52;102050.84;;;10.13;88.89
14204;BME280;7185;51.854;6.622;2023-02-16T11:55:27;102050.88;;;10.16;87.93
14204;BME280;7185;51.854;6.622;2023-02-16T11:58:14;102046.38;;;9.97;88.49
14204;BME280;7185;51.854;6.622;2023-02-16T12:00:54;102045.53;;;10.01;89.87
14204;BME280;7185;51.854;6.622;2023-02-16T12:03:48;102042.88;;;9.95;90.35
14204;BME280;7185;51.854;6.622;2023-02-16T12:06:45;102048.84;;;9.78;91.10
14204;BME280;7185;51.854;6.622;2023-02-16T12:09:28;102045.44;;;9.92;92.01
14204;BME280;7185;51.854;6.622;2023-02-16T12:12:10;102059.34;;;9.81;94.00
14204;BME280;7185;51.854;6.622;2023-02-16T12:14:53;102051.34;;;9.66;95.46
14204;BME280;7185;51.854;6.622;2023-02-16T12:17:46;102057.44;;;9.63;95.77
14204;BME280;7185;51.854;6.622;2023-02-16T12:20:32;102050.44;;;9.64;97.10
14204;BME280;7185;51.854;6.622;2023-02-16T12:23:17;102050.41;;;9.57;98.60
14204;BME280;7185;51.854;6.622;2023-02-16T12:25:59;102054.69;;;9.49;100.00
14204;BME280;7185;51.854;6.622;2023-02-16T12:28:41;102041.41;;;9.29;100.00
14204;BME280;7185;51.854;6.622;2023-02-16T12:31:25;102031.81;;;9.27;100.00
14204;BME280;7185;51.854;6.622;2023-02-16T12:34:08;102031.72;;;9.20;100.00
14204;BME280;7185;51.854;6.622;2023-02-16T12:36:52;102026.56;;;9.27;100.00
14204;BME280;7185;51.854;6.622;2023-02-16T12:39:30;102025.63;;;9.21;100.00
14204;BME280;7185;51.854;6.622;2023-02-16T12:42:21;102026.63;;;9.33;100.00
14204;BME280;7185;51.854;6.622;2023-02-16T12:45:07;102025.72;;;9.31;100.00
14204;BME280;7185;51.854;6.622;2023-02-16T12:47:44;102014.16;;;9.08;100.00
14204;BME280;7185;51.854;6.622;2023-02-16T12:50:20;102016.00;;;9.16;100.00
14204;BME280;7185;51.854;6.622;2023-02-16T12:53:01;102003.78;;;9.16;100.00
14204;BME280;7185;51.854;6.622;2023-02-16T12:55:37;102010.06;;;9.34;100.00
14204;BME280;7185;51.854;6.622;2023-02-16T12:58:16;102002.22;;;9.35;100.00
14204;BME280;7185;51.854;6.622;2023-02-16T13:00:52;101996.06;;;9.32;100.00
14204;BME280;7185;51.854;6.622;2023-02-16T13:03:33;101993.50;;;9.36;100.00
14204;BME280;7185;51.854;6.622;2023-02-16T13:06:16;101995.22;;;9.37;100.00
14204;BME280;7185;51.854;6.622;2023-02-16T13:08:59;101969.75;;;9.16;100.00
14204;BME280;7185;51.854;6.622;2023-02-16T13:11:39;101977.75;;;9.30;100.00
14204;BME280;7185;51.854;6.622;2023-02-16T13:14:17;101980.41;;;9.38;100.00
14204;BME280;7185;51.854;6.622;2023-02-16T13:16:53;101964.00;;;9.59;100.00
14204;BME280;7185;51.854;6.622;2023-02-16T13:19:26;101950.94;;;9.61;100.00
14204;BME280;7185;51.854;6.622;2023-02-16T13:22:22;101949.09;;;9.50;100.00
14204;BME280;7185;51.854;6.622;2023-02-16T13:25:15;101949.94;;;9.46;100.00
14204;BME280;7185;51.854;6.622;2023-02-16T13:28:00;101939.47;;;9.46;100.00
14204;BME280;7185;51.854;6.622;2023-02-16T13:30:58;101936.94;;;9.59;100.00
14204;BME280;7185;51.854;6.622;2023-02-16T13:33:50;101932.59;;;9.62;100.00
14204;BME280;7185;51.854;6.622;2023-02-16T13:36:36;101927.50;;;9.81;100.00
14204;BME280;7185;51.854;6.622;2023-02-16T13:39:36;101920.38;;;9.63;100.00
14204;BME280;7185;51.854;6.622;2023-02-16T13:45:09;101911.81;;;9.85;100.00
14204;BME280;7185;51.854;6.622;2023-02-16T13:47:43;101900.88;;;10.95;100.00
14204;BME280;7185;51.854;6.622;2023-02-16T13:50:29;101892.94;;;11.77;100.00
14204;BME280;7185;51.854;6.622;2023-02-16T13:53:15;101892.16;;;13.19;94.46
14204;BME280;7185;51.854;6.622;2023-02-16T13:55:49;101881.34;;;14.94;82.25
14204;BME280;7185;51.854;6.622;2023-02-16T13:58:41;101881.03;;;15.62;77.56
14204;BME280;7185;51.854;6.622;2023-02-16T14:01:36;101879.78;;;15.82;73.43
14204;BME280;7185;51.854;6.622;2023-02-16T14:04:12;101891.09;;;14.89;74.56